Data for 02/28/2007

Time Sea-Level Adjusted Pressure Absolute Pressure Temperature Relative Humidity Dew Point   
(mb) (inHg) (mb) (inHg) (C) (F) (%) (C) (F)
00:05 1005 29.68 834 24.63 -6.6 20.1 85 -8.8 16.2
00:10 1005 29.68 834 24.63 -6.9 19.6 86 -8.8 16.1
00:15 1005 29.68 834 24.63 -6.6 20.2 85 -8.7 16.4
00:20 1005 29.68 834 24.63 -6.5 20.4 85 -8.6 16.5
00:25 1005 29.68 834 24.63 -6.6 20.1 85 -8.7 16.3
00:30 1005 29.68 834 24.63 -6.6 20.2 86 -8.6 16.5
00:35 1005 29.68 834 24.63 -6.2 20.9 84 -8.4 16.8
00:40 1005 29.68 834 24.63 -6.3 20.7 85 -8.5 16.8
00:45 1005 29.68 834 24.63 -6.4 20.5 85 -8.5 16.7
00:50 1005 29.68 834 24.63 -6.5 20.3 85 -8.6 16.5
00:55 1005 29.68 834 24.63 -6.7 19.9 86 -8.7 16.4
01:00 1005 29.68 834 24.63 -6.7 20 87 -8.4 16.8
01:05 1005 29.68 834 24.63 -6.6 20.1 87 -8.5 16.7
01:10 1005 29.68 834 24.63 -6.5 20.2 86 -8.6 16.6
01:15 1005 29.68 834 24.63 -6.5 20.3 85 -8.6 16.5
01:20 1005 29.68 834 24.63 -6.9 19.6 86 -8.8 16.1
01:25 1005 29.68 835 24.66 -7.4 18.7 86 -9.3 15.2
01:30 1005 29.68 835 24.66 -7.6 18.3 86 -9.6 14.7
01:35 1005 29.68 835 24.66 -7.7 18.1 86 -9.6 14.7
01:40 1005 29.68 835 24.66 -7.8 18.1 87 -9.5 14.9
01:45 1005 29.68 835 24.66 -7.8 17.9 87 -9.6 14.8
01:50 1005 29.68 835 24.66 -8 17.6 86 -10 14.1
01:55 1005 29.68 835 24.66 -8.1 17.5 84 -10.3 13.5
02:00 1005 29.68 835 24.66 -8.3 17 85 -10.5 13.1
02:05 1005 29.68 835 24.66 -8.3 17.1 83 -10.7 12.7
02:10 1005 29.68 835 24.66 -8.4 16.8 84 -10.7 12.7
02:15 1005 29.68 835 24.66 -8.6 16.6 83 -10.9 12.3
02:20 1005 29.68 835 24.66 -8.8 16.1 83 -11.2 11.9
02:25 1005 29.68 835 24.66 -8.8 16.2 83 -11.1 11.9
02:30 1005 29.68 835 24.66 -9 15.9 84 -11.3 11.7
02:35 1005 29.68 835 24.66 -8.6 16.5 83 -11 12.2
02:40 1005 29.68 835 24.66 -8.4 17 81 -11 12.2
02:45 1005 29.68 835 24.66 -8.5 16.7 81 -11.1 11.9
02:50 1005 29.68 835 24.66 -8.8 16.2 80 -11.6 11.1
02:55 1005 29.68 835 24.66 -9.4 15.1 84 -11.7 11
03:00 1005 29.68 835 24.66 -9.5 14.9 84 -11.7 10.9
03:05 1005 29.68 834 24.63 -9.1 15.5 82 -11.7 10.9
03:10 1005 29.68 834 24.63 -9 15.7 83 -11.5 11.3
03:15 1005 29.68 834 24.63 -8.8 16.1 82 -11.4 11.4
03:20 1005 29.68 834 24.63 -8.5 16.7 82 -11 12.2
03:25 1005 29.68 834 24.63 -8.6 16.4 82 -11.2 11.9
03:30 1005 29.68 834 24.63 -8.6 16.4 81 -11.3 11.7
03:35 1005 29.68 834 24.63 -8.8 16.1 81 -11.5 11.3
03:40 1005 29.68 834 24.63 -8.8 16.2 80 -11.7 10.9
03:45 1005 29.68 834 24.63 -8.8 16.2 79 -11.8 10.8
03:50 1005 29.68 834 24.63 -8.9 16 79 -11.9 10.6
03:55 1005 29.68 834 24.63 -9.3 15.2 81 -12.1 10.2
04:00 1005 29.68 834 24.63 -9.6 14.7 82 -12.2 10
04:05 1005 29.68 834 24.63 -9.6 14.6 81 -12.3 9.8
04:10 1005 29.68 834 24.63 -9.5 14.9 80 -12.4 9.7
04:15 1005 29.68 834 24.63 -9.7 14.6 80 -12.4 9.6
04:20 1005 29.68 834 24.63 -10.1 13.9 83 -12.5 9.5
04:25 1005 29.68 834 24.63 -9.8 14.3 82 -12.3 9.8
04:30 1005 29.68 834 24.63 -9.5 14.9 87 -11.3 11.6
04:35 1005 29.68 834 24.63 -9.2 15.4 87 -11.1 12.1
04:40 1005 29.68 834 24.63 -9.1 15.7 85 -11.1 11.9
04:45 1005 29.68 834 24.63 -9.2 15.4 86 -11.2 11.9
04:50 1005 29.68 834 24.63 -9.2 15.5 87 -10.9 12.4
04:55 1005 29.68 834 24.63 -9.2 15.5 87 -11 12.2
05:00 1005 29.68 834 24.63 -9.3 15.3 88 -10.9 12.3
05:05 1005 29.68 834 24.63 -9.6 14.8 87 -11.4 11.5
05:10 1005 29.68 834 24.63 -9.9 14.2 88 -11.5 11.3
05:15 1005 29.68 834 24.63 -9.6 14.7 90 -11 12.2
05:20 1005 29.68 834 24.63 -9.4 15 90 -10.8 12.5
05:25 1005 29.68 834 24.63 -9.3 15.3 89 -10.8 12.5
05:30 1005 29.68 834 24.63 -9.1 15.6 88 -10.8 12.5
05:35 1005 29.68 834 24.63 -8.9 16 87 -10.8 12.6
05:40 1005 29.68 834 24.63 -9 15.9 86 -10.9 12.3
05:45 1005 29.68 834 24.63 -9 15.7 85 -11.2 11.9
05:50 1005 29.68 834 24.63 -9.4 15.2 86 -11.3 11.7
05:55 1005 29.68 834 24.63 -9.6 14.8 86 -11.4 11.4
06:00 1005 29.68 834 24.63 -9.5 14.9 86 -11.4 11.5
06:05 1005 29.68 834 24.63 -9.7 14.6 84 -11.9 10.6
06:10 1005 29.68 834 24.63 -9.9 14.2 84 -12 10.3
06:15 1005 29.68 834 24.63 -9.6 14.8 80 -12.3 9.8
06:20 1005 29.68 834 24.63 -9.9 14.2 82 -12.4 9.6
06:25 1005 29.68 834 24.63 -10.3 13.5 84 -12.5 9.5
06:30 1005 29.68 834 24.63 -10 14.1 85 -12 10.4
06:35 1005 29.68 834 24.63 -10.1 13.7 86 -12.1 10.2
06:40 1005 29.68 834 24.63 -10.1 13.8 86 -12 10.4
06:45 1005 29.68 834 24.63 -10 14 84 -12.2 10.1
06:50 1005 29.68 834 24.63 -9.7 14.5 83 -12.2 10.1
06:55 1005 29.68 834 24.63 -9.4 15.2 80 -12.2 10
07:00 1005 29.68 834 24.63 -9.2 15.5 78 -12.3 9.9
07:05 1005 29.68 834 24.63 -9.1 15.7 80 -11.9 10.5
07:10 1005 29.68 834 24.63 -9.4 15.2 75 -13 8.6
07:15 1005 29.68 834 24.63 -10.1 13.8 79 -13.1 8.5
07:20 1005 29.68 834 24.63 -10 13.9 77 -13.3 8
07:25 1005 29.68 834 24.63 -10.3 13.5 77 -13.5 7.6
07:30 1005 29.68 834 24.63 -9.6 14.8 75 -13.2 8.3
07:35 1005 29.68 834 24.63 -8.7 16.3 73 -12.7 9.2
07:40 1005 29.68 834 24.63 -8.4 16.9 72 -12.6 9.3
07:45 1005 29.68 834 24.63 -8.1 17.5 72 -12.3 9.9
07:50 1005 29.68 834 24.63 -8.3 17 75 -11.9 10.5
07:55 1005 29.68 834 24.63 -8.4 16.9 76 -11.9 10.7
08:00 1005 29.68 835 24.66 -8.1 17.5 72 -12.2 10
08:05 1005 29.68 834 24.63 -8.3 17.1 71 -12.6 9.3
08:10 1005 29.68 834 24.63 -8 17.5 69 -12.8 8.9
08:15 1005 29.68 834 24.63 -7.9 17.8 69 -12.7 9.2
08:20 1005 29.68 834 24.63 -7.4 18.6 67 -12.5 9.5
08:25 1005 29.68 834 24.63 -6.8 19.7 66 -12.1 10.2
08:30 1005 29.68 835 24.66 -6.3 20.7 66 -11.6 11.1
08:35 1005 29.68 835 24.66 -6.3 20.7 67 -11.5 11.3
08:40 1005 29.68 834 24.63 -5.7 21.8 66 -11.1 12.1
08:45 1005 29.68 834 24.63 -5 22.9 64 -10.9 12.5
08:50 1005 29.68 834 24.63 -4.5 23.8 62 -10.8 12.6
08:55 1005 29.68 834 24.63 -4.8 23.4 61 -11.2 11.9
09:00 1005 29.68 834 24.63 -4.2 24.4 54 -12.3 9.8
09:05 1005 29.68 834 24.63 -3 26.5 47 -12.7 9.1
09:10 1005 29.68 834 24.63 -3.2 26.2 50 -12.3 9.8
09:15 1005 29.68 834 24.63 -4.3 24.3 54 -12.2 10.1
09:20 1005 29.68 834 24.63 -4.3 24.3 52 -12.8 9
09:25 1005 29.68 834 24.63 -3.9 25 58 -11 12.2
09:30 1005 29.68 834 24.63 -3.9 25 56 -11.5 11.3
09:35 1005 29.68 834 24.63 -3.2 26.3 51 -11.8 10.7
09:40 1005 29.68 835 24.66 -2.3 27.8 46 -12.4 9.6
09:45 1005 29.68 835 24.66 -2.1 28.2 46 -12.2 10
09:50 1005 29.68 834 24.63 -2.6 27.3 48 -12.2 10.1
09:55 1005 29.68 834 24.63 -3.4 25.9 52 -11.9 10.7
10:00 1005 29.68 834 24.63 -3.6 25.5 55 -11.4 11.5
10:05 1005 29.68 834 24.63 -3.5 25.8 56 -10.9 12.3
10:10 1005 29.68 834 24.63 -3.3 26 56 -10.9 12.4
10:15 1005 29.68 834 24.63 -3.1 26.5 55 -10.8 12.6
10:20 1005 29.68 834 24.63 -3.1 26.3 56 -10.8 12.6
10:25 1005 29.68 834 24.63 -3.7 25.4 55 -11.4 11.5
10:30 1005 29.68 834 24.63 -3.7 25.4 53 -11.8 10.7
10:35 1005 29.68 834 24.63 -4.1 24.6 54 -12.2 10.1
10:40 1005 29.68 834 24.63 -3.7 25.4 50 -12.6 9.4
10:45 1005 29.68 834 24.63 -3.2 26.3 51 -12 10.4
10:50 1005 29.68 834 24.63 -2.5 27.5 50 -11.5 11.4
10:55 1005 29.68 834 24.63 -2.6 27.3 50 -11.7 10.9
11:00 1005 29.68 834 24.63 -2.9 26.9 51 -11.7 10.9
11:05 1005 29.68 834 24.63 -2.7 27.1 52 -11.3 11.7
11:10 1005 29.68 834 24.63 -1.8 28.7 48 -11.3 11.6
11:15 1005 29.68 834 24.63 -1.3 29.6 50 -10.5 13.1
11:20 1005 29.68 834 24.63 -1.2 29.8 54 -9.5 15
11:25 1005 29.68 834 24.63 -0.9 30.4 50 -10.1 13.8
11:30 1005 29.68 834 24.63 0.4 32.8 44 -10.4 13.2
11:35 1005 29.68 834 24.63 0.3 32.5 48 -9.4 15
11:40 1005 29.68 834 24.63 0.5 32.9 47 -9.5 14.9
11:45 1005 29.68 834 24.63 -0.1 31.8 51 -9 15.8
11:50 1005 29.68 834 24.63 -0.5 31.1 49 -9.9 14.2
11:55 1005 29.68 834 24.63 0.3 32.5 43 -11 12.2
12:00 1005 29.68 834 24.63 0.6 33.2 42 -10.8 12.6
12:05 1005 29.68 834 24.63 0.5 32.9 51 -8.6 16.5
12:10 1005 29.68 834 24.63 -0.3 31.4 52 -9 15.9
12:15 1005 29.68 834 24.63 -0.2 31.7 52 -9 15.9
12:20 1005 29.68 834 24.63 -0.3 31.4 51 -9.4 15.1
12:25 1005 29.68 834 24.63 -0.6 30.9 52 -9.3 15.3
12:30 1005 29.68 834 24.63 -0.5 31 54 -8.8 16.2
12:35 1005 29.68 834 24.63 -0.7 30.7 52 -9.4 15.2
12:40 1005 29.68 834 24.63 -1.4 29.4 59 -8.5 16.6
12:45 1005 29.68 834 24.63 -0.6 30.8 56 -8.4 16.9
12:50 1005 29.68 834 24.63 0.5 33 49 -8.9 16
12:55 1005 29.68 834 24.63 1.1 34.1 47 -8.9 16
13:00 1005 29.68 834 24.63 1.4 34.5 45 -9.2 15.4
13:05 1005 29.68 834 24.63 1.6 34.9 46 -8.7 16.3
13:10 1005 29.68 834 24.63 1.7 35 46 -8.7 16.3
13:15 1005 29.68 834 24.63 1.9 35.4 43 -9.3 15.2
13:20 1005 29.68 834 24.63 1.9 35.3 44 -9.1 15.5
13:25 1005 29.68 834 24.63 1.2 34.1 46 -9.3 15.3
13:30 1005 29.68 834 24.63 0.9 33.6 48 -9 15.7
13:35 1005 29.68 834 24.63 1.4 34.6 48 -8.5 16.6
13:40 1005 29.68 834 24.63 1.4 34.6 47 -8.6 16.5
13:45 1005 29.68 834 24.63 1.4 34.5 48 -8.5 16.8
13:50 1005 29.68 834 24.63 1.1 34 49 -8.4 16.9
13:55 1005 29.68 834 24.63 -0.2 31.6 52 -8.9 16.1
14:00 1005 29.68 834 24.63 -1 30.1 54 -9.1 15.5
14:05 1005 29.68 834 24.63 -0.8 30.6 52 -9.5 14.9
14:10 1005 29.68 834 24.63 -0.7 30.7 49 -10.1 13.9
14:15 1005 29.68 834 24.63 -0.9 30.5 49 -10.2 13.7
14:20 1005 29.68 834 24.63 -0.8 30.6 50 -10 13.9
14:25 1005 29.68 834 24.63 -2.1 28.3 54 -10.2 13.6
14:30 1005 29.68 834 24.63 -2.4 27.7 51 -11.2 11.9
14:35 1005 29.68 834 24.63 -2.1 28.3 48 -11.6 11.2
14:40 1005 29.68 834 24.63 -1.9 28.6 48 -11.6 11.2
14:45 1005 29.68 834 24.63 -2.3 27.8 48 -11.8 10.7
14:50 1005 29.68 834 24.63 -2.1 28.3 47 -11.9 10.7
14:55 1005 29.68 834 24.63 -2.3 27.9 48 -11.8 10.8
15:00 1005 29.68 834 24.63 -2.5 27.5 47 -12.3 9.9
15:05 1005 29.68 834 24.63 -2.4 27.6 45 -12.7 9.1
15:10 1005 29.68 834 24.63 -2 28.4 46 -12.1 10.2
15:15 1005 29.68 834 24.63 -1.9 28.6 44 -12.5 9.4
15:20 1005 29.68 834 24.63 -1.7 28.9 43 -12.6 9.3
15:25 1005 29.68 834 24.63 -1.8 28.7 43 -12.8 8.9
15:30 1005 29.68 834 24.63 -1.8 28.8 44 -12.6 9.4
15:35 1005 29.68 834 24.63 -0.9 30.3 41 -12.6 9.3
15:40 1005 29.68 834 24.63 -0.3 31.4 40 -12.4 9.6
15:45 1005 29.68 834 24.63 0.1 32.2 39 -12.2 10.1
15:50 1005 29.68 834 24.63 0.2 32.3 38 -12.6 9.3
15:55 1005 29.68 834 24.63 0.9 33.7 35 -13 8.6
16:00 1005 29.68 834 24.63 0.4 32.7 38 -12.4 9.7
16:05 1005 29.68 834 24.63 0.2 32.4 38 -12.3 9.8
16:10 1005 29.68 834 24.63 0.6 33.1 37 -12.4 9.6
16:15 1005 29.68 834 24.63 -0 31.9 38 -12.7 9.2
16:20 1005 29.68 834 24.63 -0.5 31.1 41 -12.3 9.8
16:25 1005 29.68 834 24.63 -0.2 31.6 40 -12.4 9.7
16:30 1005 29.68 834 24.63 -0.5 31.1 40 -12.5 9.6
16:35 1005 29.68 834 24.63 -0.7 30.8 41 -12.5 9.5
16:40 1005 29.68 834 24.63 -1 30.1 41 -12.8 8.9
16:45 1005 29.68 834 24.63 -0.5 31.1 40 -12.5 9.4
16:50 1005 29.68 834 24.63 -1 30.2 43 -12 10.4
16:55 1005 29.68 834 24.63 -1.2 29.8 41 -13 8.6
17:00 1005 29.68 834 24.63 -1.4 29.4 43 -12.5 9.5
17:05 1005 29.68 834 24.63 -1.6 29.1 42 -12.9 8.8
17:10 1005 29.68 834 24.63 -1.8 28.8 42 -13.1 8.4
17:15 1005 29.68 834 24.63 -2 28.5 44 -12.7 9.2
17:20 1005 29.68 834 24.63 -1.8 28.7 43 -12.7 9.1
17:25 1005 29.68 834 24.63 -1.7 29 44 -12.5 9.5
17:30 1005 29.68 834 24.63 -1.6 29.1 43 -12.7 9.1
17:35 1005 29.68 834 24.63 -1.6 29.1 44 -12.3 9.8
17:40 1005 29.68 834 24.63 -1.8 28.8 46 -12 10.4
17:45 1005 29.68 834 24.63 -2 28.4 46 -12.2 10.1
17:50 1005 29.68 834 24.63 -2.3 27.8 47 -12.3 9.9
17:55 1005 29.68 834 24.63 -2.4 27.8 47 -12.3 9.8
18:00 1005 29.68 834 24.63 -2.5 27.5 47 -12.3 9.9
18:05 1005 29.68 834 24.63 -2.6 27.3 47 -12.3 9.8
18:10 1005 29.68 834 24.63 -2.7 27.1 49 -12 10.4
18:15 1005 29.68 834 24.63 -2.8 26.9 49 -12.1 10.3
18:20 1005 29.68 834 24.63 -2.9 26.7 48 -12.4 9.7
18:25 1005 29.68 834 24.63 -3.2 26.3 48 -12.7 9.2
18:30 1005 29.68 834 24.63 -3.1 26.4 46 -13.1 8.4
18:35 1005 29.68 834 24.63 -3 26.5 46 -13.2 8.2
18:40 1005 29.68 834 24.63 -2.9 26.8 46 -12.9 8.7
18:45 1005 29.68 834 24.63 -2.6 27.3 46 -12.8 9
18:50 1005 29.68 834 24.63 -2.8 27 47 -12.7 9.2
18:55 1005 29.68 835 24.66 -3.2 26.3 52 -11.7 11
19:00 1005 29.68 835 24.66 -3.6 25.5 52 -12.1 10.1
19:05 1005 29.68 835 24.66 -3.8 25.1 53 -12.1 10.3
19:10 1005 29.68 835 24.66 -4 24.7 53 -12.2 10.1
19:15 1005 29.68 835 24.66 -4.1 24.6 55 -11.8 10.7
19:20 1005 29.68 835 24.66 -4 24.8 54 -12 10.4
19:25 1005 29.68 835 24.66 -3.9 25.1 51 -12.5 9.5
19:30 1005 29.68 835 24.66 -3.7 25.4 53 -12 10.4
19:35 1005 29.68 835 24.66 -3.7 25.3 55 -11.5 11.2
19:40 1005 29.68 835 24.66 -3.9 25 56 -11.4 11.6
19:45 1005 29.68 835 24.66 -3.8 25.2 58 -11 12.3
19:50 1005 29.68 835 24.66 -3.8 25.1 59 -10.7 12.7
19:55 1006 29.71 835 24.66 -3.9 25 60 -10.5 13
20:00 1006 29.71 835 24.66 -4 24.9 61 -10.4 13.3
20:05 1006 29.71 835 24.66 -4 24.7 61 -10.4 13.2
20:10 1006 29.71 835 24.66 -4 24.8 61 -10.6 13
20:15 1006 29.71 835 24.66 -4.1 24.7 63 -10.1 13.8
20:20 1006 29.71 835 24.66 -4.1 24.7 62 -10.4 13.4
20:25 1006 29.71 835 24.66 -3.9 25 62 -10.1 13.8
20:30 1006 29.71 835 24.66 -3.6 25.5 63 -9.7 14.5
20:35 1006 29.71 835 24.66 -3.7 25.4 63 -9.8 14.3
20:40 1006 29.71 835 24.66 -3.7 25.3 63 -9.8 14.3
20:45 1006 29.71 835 24.66 -3.5 25.7 62 -9.7 14.5
20:50 1006 29.71 835 24.66 -3.3 26 62 -9.6 14.7
20:55 1006 29.71 835 24.66 -3.1 26.4 60 -9.8 14.3
21:00 1006 29.71 835 24.66 -2.8 26.9 61 -9.3 15.2
21:05 1006 29.71 835 24.66 -2.8 27 60 -9.6 14.8
21:10 1006 29.71 835 24.66 -2.9 26.8 64 -8.7 16.3
21:15 1006 29.71 835 24.66 -3.2 26.2 66 -8.7 16.3
21:20 1006 29.71 835 24.66 -3.5 25.8 67 -8.7 16.3
21:25 1006 29.71 835 24.66 -3.4 25.9 67 -8.7 16.3
21:30 1006 29.71 835 24.66 -3.5 25.7 70 -8.2 17.3
21:35 1006 29.71 835 24.66 -4 24.8 75 -7.8 17.9
21:40 1006 29.71 835 24.66 -3.8 25.1 76 -7.4 18.7
21:45 1006 29.71 835 24.66 -3.8 25.2 78 -7.1 19.2
21:50 1006 29.71 835 24.66 -3.9 25 79 -7 19.5
21:55 1006 29.71 835 24.66 -4.1 24.5 83 -6.6 20.2
22:00 1006 29.71 835 24.66 -4.1 24.5 84 -6.5 20.4
22:05 1006 29.71 835 24.66 -4.5 23.8 86 -6.5 20.4
22:10 1006 29.71 835 24.66 -5 23 88 -6.7 20
22:15 1006 29.71 835 24.66 -5.1 22.8 89 -6.7 20
22:20 1006 29.71 835 24.66 -5.1 22.7 89 -6.7 19.9
22:25 1006 29.71 835 24.66 -5.3 22.5 89 -6.8 19.8
22:30 1006 29.71 835 24.66 -5.3 22.5 89 -6.8 19.7
22:35 1006 29.71 835 24.66 -5.2 22.7 89 -6.7 20
22:40 1006 29.71 835 24.66 -5.2 22.6 90 -6.6 20.1
22:45 1006 29.71 835 24.66 -5.3 22.5 90 -6.6 20.1
22:50 1006 29.71 835 24.66 -5.3 22.5 91 -6.5 20.2
22:55 1006 29.71 835 24.66 -5.3 22.5 91 -6.5 20.3
23:00 1006 29.71 835 24.66 -5.3 22.5 92 -6.5 20.4
23:05 1006 29.71 835 24.66 -5.3 22.5 91 -6.5 20.3
23:10 1006 29.71 835 24.66 -5.3 22.5 91 -6.5 20.3
23:15 1006 29.71 835 24.66 -5.4 22.3 92 -6.5 20.3
23:20 1006 29.71 835 24.66 -5.3 22.5 93 -6.3 20.7
23:25 1006 29.71 835 24.66 -5.1 22.9 93 -6.1 21
23:30 1006 29.71 835 24.66 -4.9 23.1 90 -6.3 20.6
23:35 1006 29.71 835 24.66 -5.2 22.7 91 -6.5 20.4
23:40 1006 29.71 835 24.66 -5.3 22.5 91 -6.6 20.1
23:45 1006 29.71 835 24.66 -5.5 22.1 92 -6.6 20.2
23:50 1006 29.71 835 24.66 -5.5 22.1 92 -6.6 20.2
23:55 1006 29.71 835 24.66 -5.7 21.8 93 -6.6 20.1
24:00 1006 29.71 835 24.66 -5.7 21.7 94 -6.6 20.1